createdAt,value
2019-05-06T00:00:59.240Z,6.00
2019-05-06T00:03:21.640Z,6.50
2019-05-06T00:05:47.199Z,6.00
2019-05-06T00:08:14.458Z,6.10
2019-05-06T00:10:40.168Z,6.57
2019-05-06T00:13:05.735Z,7.63
2019-05-06T00:15:31.389Z,6.90
2019-05-06T00:17:57.540Z,6.13
2019-05-06T00:20:24.303Z,6.43
2019-05-06T00:22:54.116Z,6.10
2019-05-06T00:25:24.199Z,6.10
2019-05-06T00:28:09.189Z,5.87
2019-05-06T00:30:35.238Z,6.23
2019-05-06T00:33:00.876Z,5.77
2019-05-06T00:35:27.763Z,5.80
2019-05-06T00:37:53.683Z,6.57
2019-05-06T00:40:27.044Z,7.53
2019-05-06T00:42:57.448Z,6.93
2019-05-06T00:45:24.386Z,6.10
2019-05-06T00:47:50.770Z,6.33
2019-05-06T00:50:19.288Z,6.57
2019-05-06T00:52:45.317Z,6.43
2019-05-06T00:55:11.204Z,7.90
2019-05-06T00:57:43.797Z,6.80
2019-05-06T01:00:10.756Z,6.00
2019-05-06T01:02:36.544Z,6.53
2019-05-06T01:05:04.498Z,6.77
2019-05-06T01:07:30.156Z,5.73
2019-05-06T01:09:55.828Z,6.50
2019-05-06T01:12:21.478Z,6.10
2019-05-06T01:14:48.904Z,6.10
2019-05-06T01:17:14.464Z,7.10
2019-05-06T01:19:40.769Z,5.33
2019-05-06T01:22:06.959Z,6.67
2019-05-06T01:24:34.517Z,5.83
2019-05-06T01:27:00.105Z,5.43
2019-05-06T01:29:25.657Z,5.60
2019-05-06T01:31:51.198Z,6.43
2019-05-06T01:34:16.983Z,5.90
2019-05-06T01:36:43.698Z,6.57
2019-05-06T01:39:17.179Z,6.67
2019-05-06T01:41:44.820Z,6.57
2019-05-06T01:44:10.559Z,6.00
2019-05-06T01:46:36.172Z,7.00
2019-05-06T01:49:01.813Z,7.10
2019-05-06T01:51:27.352Z,6.53
2019-05-06T01:53:54.421Z,7.13
2019-05-06T01:56:20.331Z,7.00
2019-05-06T01:58:46.059Z,6.30
2019-05-06T02:01:11.921Z,7.83
2019-05-06T02:03:37.553Z,6.27
2019-05-06T02:06:04.864Z,6.60
2019-05-06T02:08:30.608Z,6.67
2019-05-06T02:10:56.936Z,6.73
2019-05-06T02:13:23.808Z,6.27
2019-05-06T02:15:49.453Z,7.20
2019-05-06T02:18:16.928Z,6.50
2019-05-06T02:20:44.415Z,6.60
2019-05-06T02:23:12.202Z,6.80
2019-05-06T02:25:39.831Z,6.00
2019-05-06T02:28:05.432Z,6.07
2019-05-06T02:30:36.194Z,6.40
2019-05-06T02:33:04.396Z,6.27
2019-05-06T02:35:48.117Z,5.93
2019-05-06T02:38:32.707Z,6.50
2019-05-06T02:40:53.527Z,7.40
2019-05-06T02:43:19.526Z,6.70
2019-05-06T02:45:45.126Z,6.40
2019-05-06T02:48:13.730Z,6.67
2019-05-06T02:50:44.507Z,6.67
2019-05-06T02:53:10.141Z,6.37
2019-05-06T02:55:36.328Z,6.50
2019-05-06T02:58:02.811Z,6.87
2019-05-06T03:00:28.525Z,6.03
2019-05-06T03:02:54.438Z,6.17
2019-05-06T03:05:23.502Z,5.87
2019-05-06T03:07:48.378Z,6.30
2019-05-06T03:10:14.823Z,6.57
2019-05-06T03:12:43.088Z,7.60
2019-05-06T03:15:08.197Z,6.50
2019-05-06T03:17:33.753Z,8.07
2019-05-06T03:20:03.967Z,7.27
2019-05-06T03:22:29.747Z,7.40
2019-05-06T03:24:57.257Z,7.70
2019-05-06T03:27:23.498Z,8.20
2019-05-06T03:29:49.307Z,7.97
2019-05-06T03:32:21.659Z,8.00
2019-05-06T03:35:00.972Z,7.10
2019-05-06T03:37:16.174Z,8.47
2019-05-06T03:39:37.956Z,8.00
2019-05-06T03:42:04.572Z,7.63
2019-05-06T03:44:33.074Z,8.23
2019-05-06T03:47:09.498Z,8.70
2019-05-06T03:49:42.435Z,8.73
2019-05-06T03:52:07.727Z,8.87
2019-05-06T03:54:34.445Z,8.23
2019-05-06T04:40:33.888Z,8.00
2019-05-06T04:43:03.377Z,8.47
2019-05-06T04:45:28.158Z,8.43
2019-05-06T04:47:54.517Z,7.93
2019-05-06T04:50:20.035Z,7.70
2019-05-06T04:52:47.647Z,7.47
2019-05-06T04:55:14.272Z,7.90
2019-05-06T04:57:40.142Z,8.17
2019-05-06T05:00:05.893Z,7.80
2019-05-06T05:02:33.675Z,7.60
2019-05-06T05:04:59.087Z,7.20
2019-05-06T05:07:25.709Z,7.90
2019-05-06T05:09:53.663Z,7.13
2019-05-06T05:12:24.000Z,7.40
2019-05-06T05:14:52.396Z,6.67
2019-05-06T05:17:36.359Z,6.53
2019-05-06T05:20:03.222Z,6.73
2019-05-06T05:22:28.768Z,5.73
2019-05-06T05:24:54.496Z,5.70
2019-05-06T05:27:21.917Z,5.90
2019-05-06T05:29:47.490Z,5.57
2019-05-06T05:32:13.164Z,6.10
2019-05-06T05:34:40.828Z,5.40
2019-05-06T05:37:07.682Z,5.83
2019-05-06T05:39:33.414Z,5.30
2019-05-06T05:42:02.871Z,4.93
2019-05-06T05:44:39.298Z,6.07
2019-05-06T05:47:05.015Z,5.80
2019-05-06T05:49:35.662Z,6.10
2019-05-06T05:52:03.426Z,6.83
2019-05-06T05:54:28.996Z,6.07
2019-05-06T05:56:54.537Z,6.50
2019-05-06T05:59:22.975Z,6.40
2019-05-06T06:01:48.094Z,7.43
2019-05-06T06:04:13.623Z,6.30
2019-05-06T06:06:39.157Z,5.80
2019-05-06T06:09:06.803Z,6.07
2019-05-06T06:11:53.237Z,6.20
2019-05-06T06:14:29.623Z,5.60
2019-05-06T06:16:57.720Z,6.87
2019-05-06T06:19:27.863Z,6.13
2019-05-06T06:21:55.491Z,5.27
2019-05-06T06:24:28.544Z,6.00
2019-05-06T06:26:54.233Z,5.53
2019-05-06T06:29:19.987Z,5.03
2019-05-06T06:31:53.267Z,4.60
2019-05-06T06:34:29.497Z,5.10
2019-05-06T06:37:02.876Z,5.10
2019-05-06T06:39:32.687Z,5.70
2019-05-06T06:41:58.658Z,5.30
2019-05-06T06:44:26.200Z,5.40
2019-05-06T06:46:52.439Z,5.93
2019-05-06T06:49:18.107Z,5.63
2019-05-06T06:51:44.607Z,6.30
2019-05-06T06:54:12.303Z,5.70
2019-05-06T06:56:42.943Z,6.87
2019-05-06T06:59:13.471Z,5.60
2019-05-06T07:01:42.307Z,5.83
2019-05-06T07:04:12.983Z,6.00
2019-05-06T07:06:45.286Z,5.93
2019-05-06T07:09:12.561Z,5.00
2019-05-06T07:11:38.145Z,5.63
2019-05-06T07:14:03.788Z,5.50
2019-05-06T07:16:29.353Z,4.63
2019-05-06T07:18:54.907Z,5.07
2019-05-06T07:21:24.950Z,4.60
2019-05-06T07:23:52.872Z,4.70
2019-05-06T07:26:19.887Z,4.60
2019-05-06T07:28:45.431Z,3.20
2019-05-06T07:31:21.816Z,3.93
2019-05-06T07:33:38.561Z,3.83
2019-05-06T07:36:04.126Z,3.20
2019-05-06T07:38:32.355Z,4.10
2019-05-06T07:40:59.289Z,3.77
2019-05-06T07:43:26.936Z,3.90
2019-05-06T07:45:57.486Z,4.37
2019-05-06T07:48:23.119Z,4.00
2019-05-06T07:50:49.264Z,3.47
2019-05-06T07:53:15.009Z,3.93
2019-05-06T07:55:42.459Z,4.20
2019-05-06T07:58:08.029Z,4.77
2019-05-06T08:00:34.251Z,5.13
2019-05-06T08:03:02.317Z,5.30
2019-05-06T08:05:27.395Z,4.43
2019-05-06T08:07:55.176Z,4.23
2019-05-06T08:10:22.051Z,4.53
2019-05-06T08:12:47.643Z,4.17
2019-05-06T08:15:13.720Z,4.80
2019-05-06T08:17:42.139Z,4.50
2019-05-06T08:20:07.290Z,4.40
2019-05-06T08:22:46.619Z,4.97
2019-05-06T08:25:12.485Z,4.30
2019-05-06T08:27:38.096Z,3.83
2019-05-06T08:30:05.579Z,4.47
2019-05-06T08:32:32.138Z,3.97
2019-05-06T08:34:57.875Z,3.70
2019-05-06T08:37:27.948Z,3.93
2019-05-06T08:39:53.489Z,3.83
2019-05-06T08:42:19.117Z,3.77
2019-05-06T08:44:44.713Z,3.97
2019-05-06T08:47:10.266Z,3.13
2019-05-06T08:49:54.280Z,2.67
2019-05-06T08:52:21.725Z,2.93
2019-05-06T08:54:49.505Z,3.27
2019-05-06T08:57:15.286Z,2.83
2019-05-06T08:59:42.365Z,2.80
2019-05-06T09:02:08.775Z,3.10
2019-05-06T09:04:34.351Z,3.60
2019-05-06T09:06:59.952Z,3.30
2019-05-06T09:09:25.515Z,2.77
2019-05-06T09:11:53.260Z,3.33
2019-05-06T09:14:18.654Z,3.37
2019-05-06T09:16:44.413Z,3.40
2019-05-06T09:19:10.019Z,3.40
2019-05-06T09:21:35.599Z,3.87
2019-05-06T09:24:02.323Z,3.40
2019-05-06T09:26:38.797Z,3.80
2019-05-06T09:29:06.228Z,3.63
2019-05-06T09:31:39.305Z,4.40
2019-05-06T09:34:18.632Z,3.53
2019-05-06T09:36:51.760Z,3.40
2019-05-06T09:39:13.021Z,4.03
2019-05-06T09:41:38.771Z,2.70
2019-05-06T09:44:04.408Z,3.10
2019-05-06T09:46:32.096Z,2.90
2019-05-06T09:49:15.849Z,2.83
2019-05-06T09:51:42.426Z,3.00
2019-05-06T09:54:12.404Z,3.50
2019-05-06T09:56:48.452Z,2.90
2019-05-06T09:59:14.120Z,2.93
2019-05-06T10:01:39.733Z,3.60
2019-05-06T10:04:07.908Z,2.90
2019-05-06T10:06:33.993Z,3.90
2019-05-06T10:09:04.245Z,3.60
2019-05-06T10:11:28.979Z,2.90
2019-05-06T10:13:54.643Z,2.83
2019-05-06T10:16:20.248Z,2.60
2019-05-06T10:18:45.903Z,2.57
2019-05-06T10:21:12.505Z,2.20
2019-05-06T10:23:38.330Z,2.40
2019-05-06T10:26:04.708Z,2.17
2019-05-06T10:28:38.222Z,2.17
2019-05-06T10:31:05.763Z,2.27
2019-05-06T10:33:32.542Z,2.03
2019-05-06T10:36:02.585Z,2.10
2019-05-06T10:38:32.826Z,1.70
2019-05-06T10:41:09.120Z,1.87
2019-05-06T10:43:54.763Z,1.83
2019-05-06T10:46:22.424Z,1.67
2019-05-06T10:48:47.762Z,1.80
2019-05-06T10:51:17.052Z,2.33
2019-05-06T10:53:42.722Z,2.17
2019-05-06T10:56:24.875Z,2.07
2019-05-06T10:58:52.763Z,1.93
2019-05-06T11:01:23.243Z,2.53
2019-05-06T11:03:48.821Z,2.70
2019-05-06T11:06:14.675Z,2.43
2019-05-06T11:08:42.077Z,2.90
2019-05-06T11:11:15.309Z,3.60
2019-05-06T11:13:35.127Z,2.87
2019-05-06T11:16:03.210Z,4.10
2019-05-06T11:18:28.497Z,4.47
2019-05-06T11:20:56.326Z,4.40
2019-05-06T11:23:21.955Z,3.20
2019-05-06T11:25:47.535Z,2.87
2019-05-06T11:28:34.907Z,2.70
2019-05-06T11:31:02.481Z,2.63
2019-05-06T11:33:29.957Z,2.03
2019-05-06T11:35:57.427Z,1.90
2019-05-06T11:38:32.247Z,1.80
2019-05-06T11:40:58.088Z,1.60
2019-05-06T11:43:23.643Z,1.70
2019-05-06T11:45:49.196Z,1.93
2019-05-06T11:48:14.822Z,2.30
2019-05-06T11:50:42.765Z,2.00
2019-05-06T11:53:08.475Z,1.70
2019-05-06T11:55:38.610Z,2.20
2019-05-06T11:58:02.731Z,1.97
2019-05-06T12:00:33.310Z,1.93
2019-05-06T12:02:57.758Z,2.47
2019-05-06T12:05:23.348Z,2.70
2019-05-06T12:08:01.809Z,2.20
2019-05-06T12:10:16.537Z,2.77
2019-05-06T12:12:42.621Z,2.30
2019-05-06T12:15:08.399Z,2.10
2019-05-06T12:17:33.927Z,1.80
2019-05-06T12:19:59.470Z,1.70
2019-05-06T12:22:27.110Z,1.57
2019-05-06T12:24:52.702Z,2.17
2019-05-06T12:27:32.703Z,1.70
2019-05-06T12:29:58.319Z,2.40
2019-05-06T12:32:25.753Z,2.40
2019-05-06T12:34:52.462Z,2.10
2019-05-06T12:37:20.010Z,2.00
2019-05-06T12:39:47.520Z,2.13
2019-05-06T12:42:17.587Z,2.37
2019-05-06T12:44:45.055Z,2.10
2019-05-06T12:47:32.866Z,3.70
2019-05-06T12:49:58.063Z,2.20
2019-05-06T12:52:23.663Z,2.77
2019-05-06T12:54:49.285Z,2.77
2019-05-06T12:57:14.916Z,2.13
2019-05-06T12:59:42.574Z,2.87
2019-05-06T13:02:08.468Z,2.87
2019-05-06T13:04:50.193Z,2.50
2019-05-06T13:07:03.027Z,2.90
2019-05-06T13:09:28.972Z,2.13
2019-05-06T13:11:54.696Z,3.10
2019-05-06T13:14:22.482Z,2.97
2019-05-06T13:16:48.801Z,3.07
2019-05-06T13:19:16.500Z,2.97
2019-05-06T13:21:42.602Z,2.60
2019-05-06T13:24:08.351Z,3.10
2019-05-06T13:26:34.025Z,3.20
2019-05-06T13:29:04.266Z,3.60
2019-05-06T13:31:29.220Z,3.67
2019-05-06T13:33:56.773Z,3.50
2019-05-06T13:36:22.820Z,3.70
2019-05-06T13:38:48.603Z,4.20
2019-05-06T13:41:14.169Z,3.37
2019-05-06T13:43:43.585Z,4.60
2019-05-06T13:46:15.973Z,4.07
2019-05-06T13:48:49.580Z,4.10
2019-05-06T13:51:29.234Z,3.50
2019-05-06T13:53:54.837Z,3.17
2019-05-06T13:56:20.379Z,3.33
2019-05-06T13:58:45.900Z,3.30
2019-05-06T14:01:13.459Z,3.70
2019-05-06T14:03:39.004Z,3.43
2019-05-06T14:06:04.562Z,3.07
2019-05-06T14:08:30.115Z,3.63
2019-05-06T14:10:59.584Z,3.30
2019-05-06T14:13:23.271Z,3.10
2019-05-06T14:15:48.806Z,3.83
2019-05-06T14:18:14.407Z,4.00
2019-05-06T14:20:40.035Z,3.63
2019-05-06T14:23:05.724Z,3.40
2019-05-06T14:25:43.399Z,3.03
2019-05-06T14:28:20.067Z,4.23
2019-05-06T14:30:59.292Z,3.20
2019-05-06T14:33:25.020Z,2.80
2019-05-06T14:35:52.615Z,3.30
2019-05-06T14:38:24.313Z,3.57
2019-05-06T14:41:07.196Z,5.50
2019-05-06T14:43:32.214Z,4.43
2019-05-06T14:46:00.493Z,4.30
2019-05-06T14:48:26.069Z,3.90
2019-05-06T14:50:56.845Z,3.77
2019-05-06T14:53:19.129Z,3.13
2019-05-06T14:55:44.692Z,3.20
2019-05-06T14:58:12.078Z,3.33
2019-05-06T15:00:37.764Z,2.83
2019-05-06T15:03:03.283Z,3.77
2019-05-06T15:05:28.926Z,4.80
2019-05-06T15:07:54.629Z,3.40
2019-05-06T15:10:23.997Z,3.23
2019-05-06T15:12:48.728Z,3.23
2019-05-06T15:15:14.413Z,3.07
2019-05-06T15:17:39.996Z,3.53
2019-05-06T15:20:05.552Z,3.00
2019-05-06T15:22:31.089Z,3.37
2019-05-06T15:24:56.634Z,3.50
2019-05-06T15:27:22.939Z,3.57
2019-05-06T15:29:52.992Z,3.43
2019-05-06T15:32:23.002Z,2.70
2019-05-06T15:34:53.815Z,3.37
2019-05-06T15:37:19.939Z,3.53
2019-05-06T15:39:45.474Z,2.83
2019-05-06T15:42:12.835Z,2.90
2019-05-06T15:44:38.651Z,3.00
2019-05-06T15:47:04.203Z,2.83
2019-05-06T15:49:31.864Z,3.07
2019-05-06T15:51:57.239Z,2.83
2019-05-06T15:54:23.502Z,2.77
2019-05-06T15:56:49.177Z,3.00
2019-05-06T15:59:14.743Z,3.90
2019-05-06T16:01:40.371Z,3.60
2019-05-06T16:04:05.911Z,2.80
2019-05-06T16:06:33.155Z,2.87
2019-05-06T16:08:58.951Z,3.60
2019-05-06T16:11:24.504Z,3.30
2019-05-06T16:13:53.273Z,3.27
2019-05-06T16:16:18.563Z,3.27
2019-05-06T16:18:44.099Z,2.90
2019-05-06T16:21:09.651Z,3.17
2019-05-06T16:23:37.455Z,3.63
2019-05-06T16:26:03.148Z,3.13
2019-05-06T16:28:28.745Z,4.30
2019-05-06T16:30:54.424Z,3.90
2019-05-06T16:33:21.895Z,3.23
2019-05-06T16:35:47.640Z,3.10
2019-05-06T16:38:13.496Z,3.90
2019-05-06T16:40:39.136Z,2.57
2019-05-06T16:43:04.673Z,2.90
2019-05-06T16:45:30.221Z,2.87
2019-05-06T16:47:55.817Z,2.80
2019-05-06T16:50:22.593Z,2.50
2019-05-06T16:52:48.430Z,3.50
2019-05-06T16:55:16.378Z,2.67
2019-05-06T16:57:43.883Z,3.30
2019-05-06T17:00:11.472Z,2.80
2019-05-06T17:02:38.899Z,2.77
2019-05-06T17:05:16.079Z,3.43
2019-05-06T17:07:42.245Z,3.27
2019-05-06T17:10:09.387Z,4.43
2019-05-06T17:12:34.917Z,3.07
2019-05-06T17:15:00.533Z,4.43
2019-05-06T17:17:39.758Z,3.57
2019-05-06T17:19:53.713Z,3.40
2019-05-06T17:22:19.583Z,4.20
2019-05-06T17:24:48.201Z,8.03
2019-05-06T17:27:12.593Z,3.63
2019-05-06T17:29:42.995Z,4.50
2019-05-06T17:32:11.981Z,3.23
2019-05-06T17:34:42.580Z,3.17
2019-05-06T17:37:12.461Z,3.40
2019-05-06T17:39:39.276Z,3.10
2019-05-06T17:42:04.890Z,3.10
2019-05-06T17:44:32.353Z,4.13
2019-05-06T17:47:05.783Z,3.70
2019-05-06T17:49:33.220Z,3.53
2019-05-06T17:52:03.314Z,3.20
2019-05-06T17:54:28.847Z,3.03
2019-05-06T17:56:54.559Z,3.30
2019-05-06T17:59:20.203Z,3.17
2019-05-06T18:01:47.710Z,4.17
2019-05-06T18:04:13.279Z,3.37
2019-05-06T18:06:39.058Z,2.80
2019-05-06T18:09:05.396Z,3.00
2019-05-06T18:11:33.215Z,3.10
2019-05-06T18:13:59.090Z,3.07
2019-05-06T18:16:24.922Z,2.83
2019-05-06T18:18:52.342Z,2.90
2019-05-06T18:21:18.123Z,3.70
2019-05-06T18:23:43.897Z,2.90
2019-05-06T18:26:09.496Z,3.10
2019-05-06T18:28:35.024Z,3.30
2019-05-06T18:31:02.801Z,3.20
2019-05-06T18:33:28.333Z,3.13
2019-05-06T18:35:53.844Z,3.37
2019-05-06T18:38:19.399Z,3.40
2019-05-06T18:40:45.254Z,2.77
2019-05-06T18:43:12.760Z,3.37
2019-05-06T18:45:38.579Z,4.30
2019-05-06T18:48:04.420Z,3.93
2019-05-06T18:50:30.033Z,2.97
2019-05-06T18:52:55.698Z,3.30
2019-05-06T18:55:22.391Z,2.63
2019-05-06T18:57:48.297Z,3.33
2019-05-06T19:00:14.099Z,3.40
2019-05-06T19:02:42.163Z,3.30
2019-05-06T19:05:27.261Z,3.30
2019-05-06T19:07:53.038Z,3.33
2019-05-06T19:10:29.761Z,3.30
2019-05-06T19:12:55.307Z,3.87
2019-05-06T19:15:22.028Z,3.40
2019-05-06T19:17:47.746Z,3.00
2019-05-06T19:20:13.442Z,4.00
2019-05-06T19:25:18.770Z,4.40
2019-05-06T19:27:48.692Z,4.77
2019-05-06T19:30:18.272Z,4.67
2019-05-06T19:32:45.455Z,4.27
2019-05-06T19:35:13.316Z,4.67
2019-05-06T19:37:39.352Z,4.70
2019-05-06T19:40:05.108Z,3.90
2019-05-06T19:42:45.649Z,4.23
2019-05-06T19:45:02.488Z,3.97
2019-05-06T19:47:28.604Z,3.60
2019-05-06T19:49:54.142Z,3.47
2019-05-06T19:52:19.755Z,3.87
2019-05-06T19:54:45.841Z,4.70
2019-05-06T19:57:12.133Z,4.90
2019-05-06T19:59:42.396Z,4.97
2019-05-06T20:02:08.107Z,4.13
2019-05-06T20:04:34.465Z,4.53
2019-05-06T20:07:02.551Z,4.27
2019-05-06T20:09:45.324Z,3.90
2019-05-06T20:12:12.852Z,3.50
2019-05-06T20:14:41.968Z,4.17
2019-05-06T20:17:08.645Z,4.40
2019-05-06T20:19:34.389Z,5.20
2019-05-06T20:22:01.973Z,5.00
2019-05-06T20:24:27.933Z,4.73
2019-05-06T20:26:53.521Z,5.73
2019-05-06T20:29:19.113Z,5.37
2019-05-06T20:31:44.770Z,5.40
2019-05-06T20:34:12.331Z,4.93
2019-05-06T20:36:37.908Z,5.33
2019-05-06T20:39:05.102Z,4.93
2019-05-06T20:41:32.902Z,5.80
2019-05-06T20:43:58.603Z,4.53
2019-05-06T20:46:24.180Z,5.87
2019-05-06T20:48:53.035Z,5.43
2019-05-06T20:51:21.904Z,5.53
2019-05-06T20:53:52.660Z,4.90
2019-05-06T20:56:21.992Z,4.70
2019-05-06T20:58:48.208Z,5.50
2019-05-06T21:01:14.021Z,4.50
2019-05-06T21:03:42.248Z,7.00
2019-05-06T21:06:09.953Z,4.60
2019-05-06T21:08:37.267Z,4.77
2019-05-06T21:11:04.205Z,8.03
2019-05-06T21:13:33.039Z,4.47
2019-05-06T21:15:57.885Z,3.63
2019-05-06T21:18:24.194Z,2.97
2019-05-06T21:20:50.106Z,3.17
2019-05-06T21:23:17.304Z,2.93
2019-05-06T21:25:43.327Z,2.40
2019-05-06T21:28:09.012Z,3.27
2019-05-06T21:30:34.876Z,3.60
2019-05-06T21:33:00.419Z,3.60
2019-05-06T21:35:25.984Z,3.20
2019-05-06T21:37:52.909Z,3.70
2019-05-06T21:40:18.570Z,3.17
2019-05-06T21:42:44.105Z,3.90
2019-05-06T21:45:09.901Z,3.07
2019-05-06T21:47:35.491Z,3.23
2019-05-06T21:50:01.390Z,3.17
2019-05-06T21:52:38.867Z,2.70
2019-05-06T21:54:57.736Z,3.27
2019-05-06T21:57:24.028Z,2.93
2019-05-06T21:59:52.557Z,2.93
2019-05-06T22:02:22.899Z,3.27
2019-05-06T22:04:47.033Z,3.27
2019-05-06T22:07:18.689Z,3.63
2019-05-06T22:09:44.655Z,3.77
2019-05-06T22:12:12.624Z,3.10
2019-05-06T22:14:38.789Z,4.20
2019-05-06T22:17:06.281Z,3.50
2019-05-06T22:19:33.561Z,3.50
2019-05-06T22:22:12.056Z,3.60
2019-05-06T22:24:47.331Z,3.70
2019-05-06T22:27:13.200Z,3.77
2019-05-06T22:29:38.829Z,3.90
2019-05-06T22:32:04.461Z,3.80
2019-05-06T22:34:30.071Z,4.13
2019-05-06T22:36:55.705Z,5.03
2019-05-06T22:39:22.671Z,4.23
2019-05-06T22:41:48.343Z,4.20
2019-05-06T22:44:16.628Z,4.67
2019-05-06T22:46:42.478Z,4.10
2019-05-06T22:49:08.724Z,5.40
2019-05-06T22:51:34.248Z,4.30
2019-05-06T22:54:00.003Z,4.47
2019-05-06T22:56:25.877Z,4.07
2019-05-06T22:58:52.419Z,4.90
2019-05-06T23:01:35.099Z,5.43
2019-05-06T23:04:02.053Z,4.57
2019-05-06T23:06:27.858Z,4.70
2019-05-06T23:08:53.443Z,4.20
2019-05-06T23:11:21.927Z,5.00
2019-05-06T23:13:47.430Z,5.23
2019-05-06T23:16:12.984Z,4.80
2019-05-06T23:18:38.585Z,5.03
2019-05-06T23:21:04.124Z,5.27
2019-05-06T23:23:29.683Z,4.90
2019-05-06T23:26:13.661Z,4.60
2019-05-06T23:28:39.230Z,4.80
2019-05-06T23:31:04.778Z,4.77
2019-05-06T23:33:32.223Z,5.20
2019-05-06T23:35:58.015Z,4.83
2019-05-06T23:38:43.010Z,6.00
2019-05-06T23:41:27.109Z,4.70
2019-05-06T23:44:12.527Z,4.77
2019-05-06T23:46:56.910Z,5.07
2019-05-06T23:49:42.190Z,5.00
2019-05-06T23:52:26.379Z,5.13
2019-05-06T23:55:12.386Z,4.40
2019-05-06T23:57:37.777Z,4.87
